Buoy 46762

sailwx.info

Track history (hours):
 
Tides and Currents Weather Stations Pressure Air Temp Water Temp Dewpoint Dewpoint Depression Visibility Wind Speed Wind Dir Waves Ship Positions

Drifting buoy 46762

Last reported at 2014-Aug-29 06:00 UTC. Time now 2014-Aug-29 08:02 UTC.
Position N 55°21' W 142°46'.

Barometer 1000.4 mb
Water temperature 14.5 ° C

Date/timePositionNaut miles runAvg speedWind from/ knotsBaromVisibWave heightAir tempDewpointWater temp
2014-Aug-29 06:00N 55°21' W 142°46'1 1.3 1000.4 14.5
2014-Aug-29 05:00N 55°23' W 142°46'2 1.9 1000.4 14.5
2014-Aug-29 04:00N 55°21' W 142°48'0 0.0 1000.5 14.5
2014-Aug-29 03:00N 55°21' W 142°48'1 1.3 1000.5 14.6
2014-Aug-29 02:00N 55°22' W 142°49'1 0.9 1000.6 14.6
2014-Aug-29 01:00N 55°22' W 142°48'2 1.6 1000.8 14.5
2014-Aug-29 00:00N 55°20' W 142°49'0 0.0 1000.9 14.4
2014-Aug-28 23:00N 55°20' W 142°49'2 1.8 1001.4 14.4
2014-Aug-28 22:00N 55°18' W 142°51'2 2.3 1002.1 14.4
2014-Aug-28 21:00N 55°20' W 142°48'0 0.0 1002.5 14.4
2014-Aug-28 20:00N 55°20' W 142°48'2 1.7 1003.4 14.4
2014-Aug-28 19:00N 55°22' W 142°46'0 0.0 1003.7 14.4
2014-Aug-28 18:00N 55°22' W 142°46'0 0.0 1004.3 14.4
2014-Aug-28 17:00N 55°22' W 142°46'2 2.0 1004.8 14.4
2014-Aug-28 16:00N 55°22' W 142°49'0 0.1 1005.3 14.4
2014-Aug-28 15:00N 55°23' W 142°49'0 0.0 1005.7 14.4
2014-Aug-28 14:00N 55°23' W 142°49'1 1.2 1006.8 14.4
2014-Aug-28 13:00N 55°22' W 142°51'1 1.4 1007.7 14.4
2014-Aug-28 12:00N 55°20' W 142°51'0 0.1 1008.8 14.4
2014-Aug-28 07:00N 55°20' W 142°52'0 0.2 1013.9 14.4
2014-Aug-28 06:00N 55°20' W 142°52'1 0.6 1014.6 14.4
2014-Aug-28 05:00N 55°21' W 142°52'0 0.0 1015.2 14.4
2014-Aug-28 04:00N 55°21' W 142°52'2 1.5 1015.8 14.4
2014-Aug-28 03:00N 55°21' W 142°50'2 1.7 1016.4 14.5
2014-Aug-28 02:00N 55°21' W 142°53'0 0.0 1017.1 14.5
2014-Aug-28 00:00N 55°21' W 142°53'1 0.8 1018.0 14.5
2014-Aug-27 23:00N 55°21' W 142°54'1 1.0 1018.2 14.5
2014-Aug-27 22:00N 55°20' W 142°55'1 1.3 1018.6 14.5
2014-Aug-27 21:00N 55°21' W 142°54'0 0.0 1018.6 14.4
2014-Aug-27 20:00N 55°21' W 142°54'1 1.4 1018.7 14.4
2014-Aug-27 19:00N 55°20' W 142°55'2 2.2 1018.9 14.4
2014-Aug-27 18:00N 55°21' W 142°52'1 0.6 1018.9 14.4
2014-Aug-27 16:00N 55°20' W 142°53'1 0.3 1018.9 14.4
2014-Aug-27 14:00N 55°20' W 142°54'1 0.9 1018.4 14.4
2014-Aug-27 13:00N 55°21' W 142°54'0 0.3 1018.3 14.4
2014-Aug-27 12:00N 55°21' W 142°54'0 0.0 1018.2 14.4
2014-Aug-27 11:00N 55°21' W 142°54'1 0.7 1018.2 14.4
2014-Aug-27 10:00N 55°21' W 142°55'1 0.7 1018.3 14.4
2014-Aug-27 09:00N 55°21' W 142°54'1 0.5 1018.1 14.4
2014-Aug-27 07:00N 55°21' W 142°55'0 0.0 1018.1 14.4
2014-Aug-27 06:00N 55°21' W 142°55'0 0.4 1018.0 14.4
2014-Aug-27 05:00N 55°21' W 142°56'0 0.0 1017.8 14.4
2014-Aug-27 04:00N 55°21' W 142°56'0 0.3 1017.6 14.5
2014-Aug-27 03:00N 55°21' W 142°56'0 0.0 1017.4 14.5
2014-Aug-27 02:00N 55°21' W 142°56'0 0.0 1017.1 14.5
2014-Aug-27 01:00N 55°21' W 142°56'1 1.4 1016.9 14.5
2014-Aug-27 00:00N 55°20' W 142°58'1 0.8 1016.9 14.5
2014-Aug-26 23:00N 55°20' W 142°56'1 1.0 1016.9 14.4
2014-Aug-26 22:00N 55°19' W 142°57'0 0.0 1016.7 14.4
2014-Aug-26 21:00N 55°19' W 142°57'3 2.5 1016.3 14.4
2014-Aug-26 20:00N 55°21' W 142°54'0 0.0 1015.9 14.4
2014-Aug-26 19:00N 55°21' W 142°54'0 0.0 1015.5 14.4
2014-Aug-26 18:00N 55°21' W 142°54'2 2.3 1015.2 14.4
2014-Aug-26 17:00N 55°23' W 142°56'1 1.0 1014.8 14.3
2014-Aug-26 16:00N 55°22' W 142°55'2 1.6 1014.4 14.3
2014-Aug-26 15:00N 55°23' W 142°58'0 0.2 1014.0 14.3
2014-Aug-26 14:00N 55°23' W 142°57'3 2.7 1013.6 14.3
2014-Aug-26 13:00N 55°21' W 143°01'0 0.0 1013.5 14.3
2014-Aug-26 12:00N 55°21' W 143°01'3 0.7 1013.3 14.3
2014-Aug-26 08:00N 55°20' W 142°56'0 0.2 1013.2 14.4
2014-Aug-26 07:00N 55°20' W 142°56'3 0.9 1013.2 14.4
2014-Aug-26 04:00N 55°23' W 142°58'2 2.1 1013.4 14.4
2014-Aug-26 03:00N 55°25' W 142°58'2 1.6 1013.6 14.4
2014-Aug-26 02:00N 55°24' W 142°60'0 0.0 1013.8 14.4
2014-Aug-26 01:00N 55°24' W 142°60'1 1.5 1014.0 14.4
2014-Aug-26 00:00N 55°24' W 143°02'1 1.1 1014.2 14.4
2014-Aug-25 23:00N 55°23' W 143°04'3 2.8 1014.3 14.4
2014-Aug-25 22:00N 55°21' W 143°04'2 2.0 1014.3 14.4
2014-Aug-25 21:00N 55°20' W 143°01'0 0.0 1014.6 14.4
2014-Aug-25 20:00N 55°20' W 143°01'1 1.5 1014.9 14.4
2014-Aug-25 19:00N 55°20' W 142°58'0 0.0 1015.2 14.4
2014-Aug-25 18:00N 55°20' W 142°58'0 0.0 1015.0 14.4
2014-Aug-25 17:00N 55°20' W 142°58'3 2.6 1015.0 14.4
2014-Aug-25 16:00N 55°23' W 143°00'0 0.0 1015.3 14.4
2014-Aug-25 15:00N 55°23' W 143°00'1 1.0 1014.9 14.4
2014-Aug-25 14:00N 55°24' W 143°01'0 0.0 1014.9 14.4
2014-Aug-25 13:00N 55°24' W 143°01'2 1.8 1014.8 14.4
2014-Aug-25 12:00N 55°23' W 143°04'0 0.0 1014.6 14.4
2014-Aug-25 11:00N 55°23' W 143°04'1 0.5 1014.4 14.4
2014-Aug-25 09:00N 55°22' W 143°04'1 0.7 1014.2 14.4
2014-Aug-25 07:00N 55°21' W 143°03'1 1.1 1013.6 14.4
2014-Aug-25 06:00N 55°20' W 143°04'2 1.1 1013.4 14.4
2014-Aug-25 04:00N 55°21' W 143°00'0 0.0 1012.4 14.4
2014-Aug-25 03:00N 55°21' W 143°00'2 1.8 1011.8 14.4
2014-Aug-25 02:00N 55°23' W 142°59'1 0.7 1011.5 14.4
2014-Aug-25 01:00N 55°22' W 143°00'1 1.4 1010.7 14.4
2014-Aug-25 00:00N 55°23' W 143°02'0 0.3 1010.5 14.4
2014-Aug-24 23:00N 55°23' W 143°02'1 1.0 1010.5 14.4
2014-Aug-24 22:00N 55°24' W 143°02'3 1.5 1010.5 14.4
2014-Aug-24 20:00N 55°23' W 143°07'2 1.8 1010.7 14.4
2014-Aug-24 19:00N 55°21' W 143°07'0 0.1 1011.1 14.4
2014-Aug-24 18:00N 55°21' W 143°07'1 0.5 1011.2 14.4
2014-Aug-24 16:00N 55°20' W 143°06'1 0.6 1011.9 14.4
2014-Aug-24 15:00N 55°21' W 143°05'2 0.9 1012.0 14.4
2014-Aug-24 13:00N 55°21' W 143°02'0 0.0 1013.0 14.4
2014-Aug-24 12:00N 55°21' W 143°02'1 1.4 1014.4 14.4
2014-Aug-24 11:00N 55°22' W 143°02'5 1.7 1014.7 14.4
2014-Aug-24 08:00N 55°22' W 143°11'1 0.5 1016.7 14.4
2014-Aug-24 06:00N 55°22' W 143°09'1 0.7 1019.1 14.4
2014-Aug-24 05:00N 55°21' W 143°08'1 1.2 1019.9 14.4
2014-Aug-24 04:00N 55°21' W 143°10'2 1.8 1020.2 14.4
2014-Aug-24 03:00N 55°19' W 143°08'0 0.0 1021.2 14.4
2014-Aug-24 02:00N 55°19' W 143°08'1 0.9 1022.4 14.4
2014-Aug-24 01:00N 55°18' W 143°08'1 1.0 1023.2 14.4
2014-Aug-24 00:00N 55°18' W 143°07'1 0.9 1024.0 14.4
2014-Aug-23 23:00N 55°18' W 143°06'0 0.5 1024.6 14.5
2014-Aug-23 22:00N 55°19' W 143°07'1 0.9 1024.9 14.6
2014-Aug-23 21:00N 55°19' W 143°05'1 0.4 1025.1 14.7
2014-Aug-23 19:00N 55°20' W 143°06'0 0.4 1025.0 14.4
2014-Aug-23 18:00N 55°20' W 143°05'1 0.9 1025.1 14.3
2014-Aug-23 17:00N 55°19' W 143°06'2 0.8 1024.9 14.3
2014-Aug-23 15:00N 55°21' W 143°08'1 1.3 1024.6 14.3
2014-Aug-23 14:00N 55°19' W 143°08'1 0.9 1024.5 14.3
2014-Aug-23 13:00N 55°18' W 143°09'0 0.0 1024.3 14.3
2014-Aug-23 12:00N 55°18' W 143°09'1 1.5 1024.0 14.3
2014-Aug-23 11:00N 55°18' W 143°06'0 0.0 1023.7 14.3
2014-Aug-23 09:00N 55°18' W 143°06'1 0.5 1022.8 14.3
2014-Aug-23 08:00N 55°18' W 143°06'1 1.1 1022.5 14.3
2014-Aug-23 07:00N 55°17' W 143°05'0 0.4 1022.3 14.4
2014-Aug-23 06:00N 55°17' W 143°04'0 0.1 1022.0 14.4
2014-Aug-23 05:00N 55°18' W 143°04'1 0.5 1021.7 14.4
2014-Aug-23 04:00N 55°18' W 143°04'2 1.9 1021.7 14.4
2014-Aug-23 03:00N 55°20' W 143°03'1 1.2 1021.7 14.4
2014-Aug-23 02:00N 55°19' W 143°04'1 0.9 1021.9 14.4
2014-Aug-23 01:00N 55°20' W 143°05'1 1.0 1022.1 14.4
2014-Aug-23 00:00N 55°19' W 143°06'2 0.8 1022.4 14.4
2014-Aug-22 22:00N 55°18' W 143°08'0 0.1 1022.9 14.4
2014-Aug-22 21:00N 55°18' W 143°08'3 2.8 1023.2 14.4
2014-Aug-22 20:00N 55°15' W 143°06'0 0.0 1023.4 14.4
2014-Aug-22 19:00N 55°15' W 143°06'0 0.4 1023.4 14.4
2014-Aug-22 18:00N 55°15' W 143°07'2 1.7 1024.1 14.4
2014-Aug-22 17:00N 55°16' W 143°04'0 0.2 1024.3 14.4
2014-Aug-22 16:00N 55°16' W 143°04'1 0.8 1024.6 14.4
2014-Aug-22 15:00N 55°17' W 143°03'1 0.9 1024.9 14.4
2014-Aug-22 14:00N 55°17' W 143°05'1 0.6 1025.3 14.4
2014-Aug-22 12:00N 55°18' W 143°04'2 1.9 1026.0 14.4
2014-Aug-22 11:00N 55°18' W 143°07'0 0.0 1026.2 14.5
2014-Aug-22 09:00N 55°18' W 143°07'1 0.9 1026.4 14.5
2014-Aug-22 08:00N 55°17' W 143°07'1 1.1 1026.0 14.5
2014-Aug-22 07:00N 55°16' W 143°07'0 0.0 1026.0 14.6
2014-Aug-22 06:00N 55°16' W 143°07'2 0.9 1025.8 14.6
2014-Aug-22 04:00N 55°14' W 143°06'0 0.0 1026.2 14.8
2014-Aug-22 03:00N 55°14' W 143°06'1 0.5 1026.3 14.8
2014-Aug-22 02:00N 55°14' W 143°05'2 1.6 1026.6 14.9
2014-Aug-22 01:00N 55°15' W 143°03'0 0.0 1026.4 14.9
2014-Aug-22 00:00N 55°15' W 143°03'1 1.0 1026.5 14.8
2014-Aug-21 23:00N 55°16' W 143°03'1 0.8 1026.4 14.8
2014-Aug-21 22:00N 55°17' W 143°02'1 1.0 1026.4 14.6
2014-Aug-21 21:00N 55°17' W 143°04'1 0.6 1026.1 14.4
2014-Aug-21 20:00N 55°17' W 143°04'2 1.8 1025.7 14.3
2014-Aug-21 19:00N 55°18' W 143°08'3 2.9 1025.3 14.2
2014-Aug-21 18:00N 55°16' W 143°11'0 0.0 1025.1 14.1
2014-Aug-21 17:00N 55°16' W 143°11'1 1.3 1024.7 14.1
2014-Aug-21 16:00N 55°15' W 143°13'5 2.4 1024.4 14.1
2014-Aug-21 14:00N 55°12' W 143°07'0 0.2 1023.8 14.1
2014-Aug-21 13:00N 55°12' W 143°06'1 1.0 1023.4 14.1
2014-Aug-21 12:00N 55°12' W 143°05'2 2.4 1023.1 14.1
2014-Aug-21 11:00N 55°14' W 143°02'2 1.6 1022.7 14.1
2014-Aug-21 10:00N 55°16' W 143°04'1 0.4 1022.4 14.1
2014-Aug-21 07:00N 55°16' W 143°05'0 0.2 1021.0 14.1
2014-Aug-21 06:00N 55°16' W 143°05'2 2.3 1020.5 14.1
2014-Aug-21 05:00N 55°16' W 143°09'0 0.4 1019.9 14.1
2014-Aug-21 04:00N 55°16' W 143°09'1 1.3 1019.5 14.2
2014-Aug-21 03:00N 55°15' W 143°10'1 1.3 1019.3 14.2
2014-Aug-21 02:00N 55°13' W 143°10'1 1.2 1019.0 14.2
2014-Aug-21 01:00N 55°12' W 143°10'1 0.9 1018.7 14.2
2014-Aug-21 00:00N 55°12' W 143°09'3 3.4 1018.3 14.2
2014-Aug-20 23:00N 55°10' W 143°04'0 0.0 1018.1 14.2
2014-Aug-20 22:00N 55°10' W 143°04'1 1.0 1017.8 14.1
2014-Aug-20 21:00N 55°11' W 143°03'1 1.3 1017.4 14.1
2014-Aug-20 20:00N 55°12' W 143°02'1 1.3 1016.9 14.0
2014-Aug-20 19:00N 55°13' W 143°03'0 0.0 1016.6 14.0
2014-Aug-20 18:00N 55°13' W 143°03'0 0.0 1016.3 14.0
2014-Aug-20 17:00N 55°13' W 143°03'3 1.3 1015.9 14.0
2014-Aug-20 15:00N 55°13' W 143°08'0 0.0 1015.3 14.1
2014-Aug-20 14:00N 55°13' W 143°08'4 4.4 1015.2 14.1
2014-Aug-20 13:00N 55°09' W 143°04'0 0.0 1015.0 14.1
2014-Aug-20 12:00N 55°09' W 143°04'0 0.0 1015.2 14.1
2014-Aug-20 10:00N 55°09' W 143°04'0 0.0 1015.4 14.1
2014-Aug-20 09:00N 55°09' W 143°04'1 0.5 1015.5 14.1
2014-Aug-20 07:00N 55°10' W 143°04'0 0.4 1015.8 14.2
2014-Aug-20 06:00N 55°11' W 143°04'0 0.2 1015.6 14.2
2014-Aug-20 03:00N 55°11' W 143°04'2 0.9 1016.5 14.4
2014-Aug-20 01:00N 55°10' W 143°06'0 0.2 1017.1 14.6
2014-Aug-19 23:00N 55°10' W 143°06'0 0.3 1018.3 14.6
2014-Aug-19 22:00N 55°09' W 143°06'1 0.7 1018.4 14.4
2014-Aug-19 21:00N 55°10' W 143°05'1 1.0 1018.6 14.2
2014-Aug-19 20:00N 55°09' W 143°06'1 0.8 1018.6 14.1
2014-Aug-19 19:00N 55°08' W 143°05'0 0.0 1018.5 14.1
2014-Aug-19 18:00N 55°08' W 143°05'1 1.5 1018.5 14.0
2014-Aug-19 17:00N 55°10' W 143°05'2 1.9 1018.6 14.0
2014-Aug-19 16:00N 55°08' W 143°05'0 0.0 1018.9 14.0
2014-Aug-19 15:00N 55°08' W 143°05'1 0.7 1019.0 14.0
2014-Aug-19 14:00N 55°08' W 143°05'1 0.5 1019.3 14.0
2014-Aug-19 13:00N 55°08' W 143°05'1 0.6 1019.7 14.0
2014-Aug-19 12:00N 55°08' W 143°06'1 0.7 1019.6 14.0
2014-Aug-19 10:00N 55°10' W 143°06'2 0.9 1019.8 14.0
2014-Aug-19 08:00N 55°08' W 143°07'0 0.0 1019.7 14.0
2014-Aug-19 07:00N 55°08' W 143°07'1 1.0 1019.7 14.0
2014-Aug-19 06:00N 55°08' W 143°09'   1019.8 14.0
Track history (hours):
 
Tides and Currents Weather Stations Pressure Air Temp Water Temp Dewpoint Dewpoint Depression Visibility Wind Speed Wind Dir Waves Ship Positions

Drifting buoy 46762

Last reported at 2014-Aug-29 06:00 UTC. Time now 2014-Aug-29 08:02 UTC.
Position N 55°21' W 142°46'.

Barometer 1000.4 mb
Water temperature 14.5 ° C

Date/timePositionNaut miles runAvg speedWind from/ knotsBaromVisibWave heightAir tempDewpointWater temp
2014-Aug-29 06:00N 55°21' W 142°46'1 1.3 1000.4 14.5
2014-Aug-29 05:00N 55°23' W 142°46'2 1.9 1000.4 14.5
2014-Aug-29 04:00N 55°21' W 142°48'0 0.0 1000.5 14.5
2014-Aug-29 03:00N 55°21' W 142°48'1 1.3 1000.5 14.6
2014-Aug-29 02:00N 55°22' W 142°49'1 0.9 1000.6 14.6
2014-Aug-29 01:00N 55°22' W 142°48'2 1.6 1000.8 14.5
2014-Aug-29 00:00N 55°20' W 142°49'0 0.0 1000.9 14.4
2014-Aug-28 23:00N 55°20' W 142°49'2 1.8 1001.4 14.4
2014-Aug-28 22:00N 55°18' W 142°51'2 2.3 1002.1 14.4
2014-Aug-28 21:00N 55°20' W 142°48'0 0.0 1002.5 14.4
2014-Aug-28 20:00N 55°20' W 142°48'2 1.7 1003.4 14.4
2014-Aug-28 19:00N 55°22' W 142°46'0 0.0 1003.7 14.4
2014-Aug-28 18:00N 55°22' W 142°46'0 0.0 1004.3 14.4
2014-Aug-28 17:00N 55°22' W 142°46'2 2.0 1004.8 14.4
2014-Aug-28 16:00N 55°22' W 142°49'0 0.1 1005.3 14.4
2014-Aug-28 15:00N 55°23' W 142°49'0 0.0 1005.7 14.4
2014-Aug-28 14:00N 55°23' W 142°49'1 1.2 1006.8 14.4
2014-Aug-28 13:00N 55°22' W 142°51'1 1.4 1007.7 14.4
2014-Aug-28 12:00N 55°20' W 142°51'0 0.1 1008.8 14.4
2014-Aug-28 07:00N 55°20' W 142°52'0 0.2 1013.9 14.4
2014-Aug-28 06:00N 55°20' W 142°52'1 0.6 1014.6 14.4
2014-Aug-28 05:00N 55°21' W 142°52'0 0.0 1015.2 14.4
2014-Aug-28 04:00N 55°21' W 142°52'2 1.5 1015.8 14.4
2014-Aug-28 03:00N 55°21' W 142°50'2 1.7 1016.4 14.5
2014-Aug-28 02:00N 55°21' W 142°53'0 0.0 1017.1 14.5
2014-Aug-28 00:00N 55°21' W 142°53'1 0.8 1018.0 14.5
2014-Aug-27 23:00N 55°21' W 142°54'1 1.0 1018.2 14.5
2014-Aug-27 22:00N 55°20' W 142°55'1 1.3 1018.6 14.5
2014-Aug-27 21:00N 55°21' W 142°54'0 0.0 1018.6 14.4
2014-Aug-27 20:00N 55°21' W 142°54'1 1.4 1018.7 14.4
2014-Aug-27 19:00N 55°20' W 142°55'2 2.2 1018.9 14.4
2014-Aug-27 18:00N 55°21' W 142°52'1 0.6 1018.9 14.4
2014-Aug-27 16:00N 55°20' W 142°53'1 0.3 1018.9 14.4
2014-Aug-27 14:00N 55°20' W 142°54'1 0.9 1018.4 14.4
2014-Aug-27 13:00N 55°21' W 142°54'0 0.3 1018.3 14.4
2014-Aug-27 12:00N 55°21' W 142°54'0 0.0 1018.2 14.4
2014-Aug-27 11:00N 55°21' W 142°54'1 0.7 1018.2 14.4
2014-Aug-27 10:00N 55°21' W 142°55'1 0.7 1018.3 14.4
2014-Aug-27 09:00N 55°21' W 142°54'1 0.5 1018.1 14.4
2014-Aug-27 07:00N 55°21' W 142°55'0 0.0 1018.1 14.4
2014-Aug-27 06:00N 55°21' W 142°55'0 0.4 1018.0 14.4
2014-Aug-27 05:00N 55°21' W 142°56'0 0.0 1017.8 14.4
2014-Aug-27 04:00N 55°21' W 142°56'0 0.3 1017.6 14.5
2014-Aug-27 03:00N 55°21' W 142°56'0 0.0 1017.4 14.5
2014-Aug-27 02:00N 55°21' W 142°56'0 0.0 1017.1 14.5
2014-Aug-27 01:00N 55°21' W 142°56'1 1.4 1016.9 14.5
2014-Aug-27 00:00N 55°20' W 142°58'1 0.8 1016.9 14.5
2014-Aug-26 23:00N 55°20' W 142°56'1 1.0 1016.9 14.4
2014-Aug-26 22:00N 55°19' W 142°57'0 0.0 1016.7 14.4
2014-Aug-26 21:00N 55°19' W 142°57'3 2.5 1016.3 14.4
2014-Aug-26 20:00N 55°21' W 142°54'0 0.0 1015.9 14.4
2014-Aug-26 19:00N 55°21' W 142°54'0 0.0 1015.5 14.4
2014-Aug-26 18:00N 55°21' W 142°54'2 2.3 1015.2 14.4
2014-Aug-26 17:00N 55°23' W 142°56'1 1.0 1014.8 14.3
2014-Aug-26 16:00N 55°22' W 142°55'2 1.6 1014.4 14.3
2014-Aug-26 15:00N 55°23' W 142°58'0 0.2 1014.0 14.3
2014-Aug-26 14:00N 55°23' W 142°57'3 2.7 1013.6 14.3
2014-Aug-26 13:00N 55°21' W 143°01'0 0.0 1013.5 14.3
2014-Aug-26 12:00N 55°21' W 143°01'3 0.7 1013.3 14.3
2014-Aug-26 08:00N 55°20' W 142°56'0 0.2 1013.2 14.4
2014-Aug-26 07:00N 55°20' W 142°56'3 0.9 1013.2 14.4
2014-Aug-26 04:00N 55°23' W 142°58'2 2.1 1013.4 14.4
2014-Aug-26 03:00N 55°25' W 142°58'2 1.6 1013.6 14.4
2014-Aug-26 02:00N 55°24' W 142°60'0 0.0 1013.8 14.4
2014-Aug-26 01:00N 55°24' W 142°60'1 1.5 1014.0 14.4
2014-Aug-26 00:00N 55°24' W 143°02'1 1.1 1014.2 14.4
2014-Aug-25 23:00N 55°23' W 143°04'3 2.8 1014.3 14.4
2014-Aug-25 22:00N 55°21' W 143°04'2 2.0 1014.3 14.4
2014-Aug-25 21:00N 55°20' W 143°01'0 0.0 1014.6 14.4
2014-Aug-25 20:00N 55°20' W 143°01'1 1.5 1014.9 14.4
2014-Aug-25 19:00N 55°20' W 142°58'0 0.0 1015.2 14.4
2014-Aug-25 18:00N 55°20' W 142°58'0 0.0 1015.0 14.4
2014-Aug-25 17:00N 55°20' W 142°58'3 2.6 1015.0 14.4
2014-Aug-25 16:00N 55°23' W 143°00'0 0.0 1015.3 14.4
2014-Aug-25 15:00N 55°23' W 143°00'1 1.0 1014.9 14.4
2014-Aug-25 14:00N 55°24' W 143°01'0 0.0 1014.9 14.4
2014-Aug-25 13:00N 55°24' W 143°01'2 1.8 1014.8 14.4
2014-Aug-25 12:00N 55°23' W 143°04'0 0.0 1014.6 14.4
2014-Aug-25 11:00N 55°23' W 143°04'1 0.5 1014.4 14.4
2014-Aug-25 09:00N 55°22' W 143°04'1 0.7 1014.2 14.4
2014-Aug-25 07:00N 55°21' W 143°03'1 1.1 1013.6 14.4
2014-Aug-25 06:00N 55°20' W 143°04'2 1.1 1013.4 14.4
2014-Aug-25 04:00N 55°21' W 143°00'0 0.0 1012.4 14.4
2014-Aug-25 03:00N 55°21' W 143°00'2 1.8 1011.8 14.4
2014-Aug-25 02:00N 55°23' W 142°59'1 0.7 1011.5 14.4
2014-Aug-25 01:00N 55°22' W 143°00'1 1.4 1010.7 14.4
2014-Aug-25 00:00N 55°23' W 143°02'0 0.3 1010.5 14.4
2014-Aug-24 23:00N 55°23' W 143°02'1 1.0 1010.5 14.4
2014-Aug-24 22:00N 55°24' W 143°02'3 1.5 1010.5 14.4
2014-Aug-24 20:00N 55°23' W 143°07'2 1.8 1010.7 14.4
2014-Aug-24 19:00N 55°21' W 143°07'0 0.1 1011.1 14.4
2014-Aug-24 18:00N 55°21' W 143°07'1 0.5 1011.2 14.4
2014-Aug-24 16:00N 55°20' W 143°06'1 0.6 1011.9 14.4
2014-Aug-24 15:00N 55°21' W 143°05'2 0.9 1012.0 14.4
2014-Aug-24 13:00N 55°21' W 143°02'0 0.0 1013.0 14.4
2014-Aug-24 12:00N 55°21' W 143°02'1 1.4 1014.4 14.4
2014-Aug-24 11:00N 55°22' W 143°02'5 1.7 1014.7 14.4
2014-Aug-24 08:00N 55°22' W 143°11'1 0.5 1016.7 14.4
2014-Aug-24 06:00N 55°22' W 143°09'1 0.7 1019.1 14.4
2014-Aug-24 05:00N 55°21' W 143°08'1 1.2 1019.9 14.4
2014-Aug-24 04:00N 55°21' W 143°10'2 1.8 1020.2 14.4
2014-Aug-24 03:00N 55°19' W 143°08'0 0.0 1021.2 14.4
2014-Aug-24 02:00N 55°19' W 143°08'1 0.9 1022.4 14.4
2014-Aug-24 01:00N 55°18' W 143°08'1 1.0 1023.2 14.4
2014-Aug-24 00:00N 55°18' W 143°07'1 0.9 1024.0 14.4
2014-Aug-23 23:00N 55°18' W 143°06'0 0.5 1024.6 14.5
2014-Aug-23 22:00N 55°19' W 143°07'1 0.9 1024.9 14.6
2014-Aug-23 21:00N 55°19' W 143°05'1 0.4 1025.1 14.7
2014-Aug-23 19:00N 55°20' W 143°06'0 0.4 1025.0 14.4
2014-Aug-23 18:00N 55°20' W 143°05'1 0.9 1025.1 14.3
2014-Aug-23 17:00N 55°19' W 143°06'2 0.8 1024.9 14.3
2014-Aug-23 15:00N 55°21' W 143°08'1 1.3 1024.6 14.3
2014-Aug-23 14:00N 55°19' W 143°08'1 0.9 1024.5 14.3
2014-Aug-23 13:00N 55°18' W 143°09'0 0.0 1024.3 14.3
2014-Aug-23 12:00N 55°18' W 143°09'1 1.5 1024.0 14.3
2014-Aug-23 11:00N 55°18' W 143°06'0 0.0 1023.7 14.3
2014-Aug-23 09:00N 55°18' W 143°06'1 0.5 1022.8 14.3
2014-Aug-23 08:00N 55°18' W 143°06'1 1.1 1022.5 14.3
2014-Aug-23 07:00N 55°17' W 143°05'0 0.4 1022.3 14.4
2014-Aug-23 06:00N 55°17' W 143°04'0 0.1 1022.0 14.4
2014-Aug-23 05:00N 55°18' W 143°04'1 0.5 1021.7 14.4
2014-Aug-23 04:00N 55°18' W 143°04'2 1.9 1021.7 14.4
2014-Aug-23 03:00N 55°20' W 143°03'1 1.2 1021.7 14.4
2014-Aug-23 02:00N 55°19' W 143°04'1 0.9 1021.9 14.4
2014-Aug-23 01:00N 55°20' W 143°05'1 1.0 1022.1 14.4
2014-Aug-23 00:00N 55°19' W 143°06'2 0.8 1022.4 14.4
2014-Aug-22 22:00N 55°18' W 143°08'0 0.1 1022.9 14.4
2014-Aug-22 21:00N 55°18' W 143°08'3 2.8 1023.2 14.4
2014-Aug-22 20:00N 55°15' W 143°06'0 0.0 1023.4 14.4
2014-Aug-22 19:00N 55°15' W 143°06'0 0.4 1023.4 14.4
2014-Aug-22 18:00N 55°15' W 143°07'2 1.7 1024.1 14.4
2014-Aug-22 17:00N 55°16' W 143°04'0 0.2 1024.3 14.4
2014-Aug-22 16:00N 55°16' W 143°04'1 0.8 1024.6 14.4
2014-Aug-22 15:00N 55°17' W 143°03'1 0.9 1024.9 14.4
2014-Aug-22 14:00N 55°17' W 143°05'1 0.6 1025.3 14.4
2014-Aug-22 12:00N 55°18' W 143°04'2 1.9 1026.0 14.4
2014-Aug-22 11:00N 55°18' W 143°07'0 0.0 1026.2 14.5
2014-Aug-22 09:00N 55°18' W 143°07'1 0.9 1026.4 14.5
2014-Aug-22 08:00N 55°17' W 143°07'1 1.1 1026.0 14.5
2014-Aug-22 07:00N 55°16' W 143°07'0 0.0 1026.0 14.6
2014-Aug-22 06:00N 55°16' W 143°07'2 0.9 1025.8 14.6
2014-Aug-22 04:00N 55°14' W 143°06'0 0.0 1026.2 14.8
2014-Aug-22 03:00N 55°14' W 143°06'1 0.5 1026.3 14.8
2014-Aug-22 02:00N 55°14' W 143°05'2 1.6 1026.6 14.9
2014-Aug-22 01:00N 55°15' W 143°03'0 0.0 1026.4 14.9
2014-Aug-22 00:00N 55°15' W 143°03'1 1.0 1026.5 14.8
2014-Aug-21 23:00N 55°16' W 143°03'1 0.8 1026.4 14.8
2014-Aug-21 22:00N 55°17' W 143°02'1 1.0 1026.4 14.6
2014-Aug-21 21:00N 55°17' W 143°04'1 0.6 1026.1 14.4
2014-Aug-21 20:00N 55°17' W 143°04'2 1.8 1025.7 14.3
2014-Aug-21 19:00N 55°18' W 143°08'3 2.9 1025.3 14.2
2014-Aug-21 18:00N 55°16' W 143°11'0 0.0 1025.1 14.1
2014-Aug-21 17:00N 55°16' W 143°11'1 1.3 1024.7 14.1
2014-Aug-21 16:00N 55°15' W 143°13'5 2.4 1024.4 14.1
2014-Aug-21 14:00N 55°12' W 143°07'0 0.2 1023.8 14.1
2014-Aug-21 13:00N 55°12' W 143°06'1 1.0 1023.4 14.1
2014-Aug-21 12:00N 55°12' W 143°05'2 2.4 1023.1 14.1
2014-Aug-21 11:00N 55°14' W 143°02'2 1.6 1022.7 14.1
2014-Aug-21 10:00N 55°16' W 143°04'1 0.4 1022.4 14.1
2014-Aug-21 07:00N 55°16' W 143°05'0 0.2 1021.0 14.1
2014-Aug-21 06:00N 55°16' W 143°05'2 2.3 1020.5 14.1
2014-Aug-21 05:00N 55°16' W 143°09'0 0.4 1019.9 14.1
2014-Aug-21 04:00N 55°16' W 143°09'1 1.3 1019.5 14.2
2014-Aug-21 03:00N 55°15' W 143°10'1 1.3 1019.3 14.2
2014-Aug-21 02:00N 55°13' W 143°10'1 1.2 1019.0 14.2
2014-Aug-21 01:00N 55°12' W 143°10'1 0.9 1018.7 14.2
2014-Aug-21 00:00N 55°12' W 143°09'3 3.4 1018.3 14.2
2014-Aug-20 23:00N 55°10' W 143°04'0 0.0 1018.1 14.2
2014-Aug-20 22:00N 55°10' W 143°04'1 1.0 1017.8 14.1
2014-Aug-20 21:00N 55°11' W 143°03'1 1.3 1017.4 14.1
2014-Aug-20 20:00N 55°12' W 143°02'1 1.3 1016.9 14.0
2014-Aug-20 19:00N 55°13' W 143°03'0 0.0 1016.6 14.0
2014-Aug-20 18:00N 55°13' W 143°03'0 0.0 1016.3 14.0
2014-Aug-20 17:00N 55°13' W 143°03'3 1.3 1015.9 14.0
2014-Aug-20 15:00N 55°13' W 143°08'0 0.0 1015.3 14.1
2014-Aug-20 14:00N 55°13' W 143°08'4 4.4 1015.2 14.1
2014-Aug-20 13:00N 55°09' W 143°04'0 0.0 1015.0 14.1
2014-Aug-20 12:00N 55°09' W 143°04'0 0.0 1015.2 14.1
2014-Aug-20 10:00N 55°09' W 143°04'0 0.0 1015.4 14.1
2014-Aug-20 09:00N 55°09' W 143°04'1 0.5 1015.5 14.1
2014-Aug-20 07:00N 55°10' W 143°04'0 0.4 1015.8 14.2
2014-Aug-20 06:00N 55°11' W 143°04'0 0.2 1015.6 14.2
2014-Aug-20 03:00N 55°11' W 143°04'2 0.9 1016.5 14.4
2014-Aug-20 01:00N 55°10' W 143°06'0 0.2 1017.1 14.6
2014-Aug-19 23:00N 55°10' W 143°06'0 0.3 1018.3 14.6
2014-Aug-19 22:00N 55°09' W 143°06'1 0.7 1018.4 14.4
2014-Aug-19 21:00N 55°10' W 143°05'1 1.0 1018.6 14.2
2014-Aug-19 20:00N 55°09' W 143°06'1 0.8 1018.6 14.1
2014-Aug-19 19:00N 55°08' W 143°05'0 0.0 1018.5 14.1
2014-Aug-19 18:00N 55°08' W 143°05'1 1.5 1018.5 14.0
2014-Aug-19 17:00N 55°10' W 143°05'2 1.9 1018.6 14.0
2014-Aug-19 16:00N 55°08' W 143°05'0 0.0 1018.9 14.0
2014-Aug-19 15:00N 55°08' W 143°05'1 0.7 1019.0 14.0
2014-Aug-19 14:00N 55°08' W 143°05'1 0.5 1019.3 14.0
2014-Aug-19 13:00N 55°08' W 143°05'1 0.6 1019.7 14.0
2014-Aug-19 12:00N 55°08' W 143°06'1 0.7 1019.6 14.0
2014-Aug-19 10:00N 55°10' W 143°06'2 0.9 1019.8 14.0
2014-Aug-19 08:00N 55°08' W 143°07'0 0.0 1019.7 14.0
2014-Aug-19 07:00N 55°08' W 143°07'1 1.0 1019.7 14.0
2014-Aug-19 06:00N 55°08' W 143°09'   1019.8 14.0

Dump ship's entire track history